Time;durP1;ratioP1;P1;durP2;ratioP2;P2;SDS_P1;SDS_P2;PMS_P1;PMS_P2;Temp;Humidity;BMP_temperature;BMP_pressure;BME280_temperature;BME280_humidity;BME280_pressure;Samples;Min_cycle;Max_cycle;Signal;HPM_P1;HPM_P2
2023/01/15 00:00:11;;;;;;;2.55;0.90;;;;;;;10.15;100.00;98291.91;12181707;19;20010;-85
2023/01/15 00:04:13;;;;;;;1.80;1.10;;;;;;;10.13;100.00;98292.19;12203277;19;20011;-84
2023/01/15 00:08:14;;;;;;;2.42;1.05;;;;;;;10.13;100.00;98286.69;12180248;19;20014;-84
2023/01/15 00:12:16;;;;;;;1.67;0.95;;;;;;;10.17;100.00;98286.94;12202384;19;20007;-85
2023/01/15 00:16:22;;;;;;;1.48;0.90;;;;;;;10.17;100.00;98278.69;12228383;19;20068;-83
2023/01/15 00:20:23;;;;;;;1.73;0.90;;;;;;;10.19;100.00;98279.22;12211489;19;20013;-84
2023/01/15 00:28:47;;;;;;;1.98;1.08;;;;;;;10.16;100.00;98252.28;12205224;19;20023;-83
2023/01/15 00:32:52;;;;;;;1.20;0.70;;;;;;;10.25;100.00;98239.53;12184229;19;20489;-87
2023/01/15 00:36:59;;;;;;;1.60;0.82;;;;;;;10.19;100.00;98230.50;12203443;19;20009;-87
2023/01/15 00:41:01;;;;;;;4.28;1.10;;;;;;;10.29;100.00;98232.38;12202873;19;20025;-85
2023/01/15 00:45:08;;;;;;;1.60;0.80;;;;;;;10.22;100.00;98221.66;12178862;19;20027;-88
2023/01/15 00:49:16;;;;;;;3.67;0.82;;;;;;;10.28;100.00;98222.47;12202442;19;20006;-87
2023/01/15 00:53:18;;;;;;;0.85;0.63;;;;;;;10.24;100.00;98213.13;12181063;19;20033;-86
2023/01/15 00:57:20;;;;;;;1.55;0.73;;;;;;;10.25;100.00;98217.53;12200944;19;20002;-85
2023/01/15 01:01:31;;;;;;;1.98;1.05;;;;;;;10.30;100.00;98202.94;12202821;19;20380;-86
2023/01/15 01:05:35;;;;;;;1.25;0.70;;;;;;;10.26;100.00;98198.00;12177941;19;20134;-86
2023/01/15 01:09:39;;;;;;;1.02;0.60;;;;;;;10.32;100.00;98192.44;12202984;19;20010;-86
2023/01/15 01:13:43;;;;;;;1.40;0.77;;;;;;;10.36;100.00;98204.53;12212003;19;20547;-85
2023/01/15 01:17:45;;;;;;;0.88;0.70;;;;;;;10.36;100.00;98208.09;12197854;19;20035;-84
2023/01/15 01:21:47;;;;;;;1.10;0.55;;;;;;;10.38;100.00;98213.31;12272938;19;20042;-86
2023/01/15 01:25:49;;;;;;;1.20;0.60;;;;;;;10.42;100.00;98217.16;12255586;19;20010;-84
2023/01/15 01:29:51;;;;;;;2.27;0.67;;;;;;;10.39;100.00;98217.72;12186968;19;20011;-83
2023/01/15 01:33:55;;;;;;;5.47;0.80;;;;;;;10.39;100.00;98215.78;12200422;19;20026;-82
2023/01/15 01:37:57;;;;;;;1.80;0.80;;;;;;;10.37;100.00;98208.94;12199322;19;20014;-84
2023/01/15 01:41:58;;;;;;;2.88;1.13;;;;;;;10.37;100.00;98226.25;12179139;19;20014;-84
2023/01/15 01:46:00;;;;;;;2.25;0.93;;;;;;;10.41;100.00;98238.38;12191795;19;20015;-81
2023/01/15 01:50:08;;;;;;;2.58;1.05;;;;;;;10.35;100.00;98228.50;12195178;19;20016;-81
2023/01/15 01:54:12;;;;;;;2.90;1.00;;;;;;;10.30;100.00;98225.78;12171733;19;20093;-81
2023/01/15 01:58:16;;;;;;;2.17;1.30;;;;;;;10.30;100.00;98228.53;12196715;19;19999;-81
2023/01/15 02:02:20;;;;;;;2.35;1.27;;;;;;;10.31;100.00;98226.59;12173860;19;20007;-82
2023/01/15 02:06:25;;;;;;;4.70;1.80;;;;;;;10.32;100.00;98240.09;12197471;19;20015;-81
2023/01/15 02:10:27;;;;;;;6.50;3.50;;;;;;;10.33;100.00;98240.91;12218529;19;20022;-82
2023/01/15 02:14:42;;;;;;;14.15;3.47;;;;;;;10.31;100.00;98241.19;12235775;19;20036;-82
2023/01/15 02:18:55;;;;;;;10.18;4.55;;;;;;;10.30;100.00;98267.06;12249288;19;20045;-84
2023/01/15 02:23:24;;;;;;;3.38;1.00;;;;;;;10.19;100.00;98265.47;12228117;19;20015;-82
2023/01/15 02:27:27;;;;;;;0.50;0.40;;;;;;;10.07;100.00;98274.06;12202668;19;20361;-83
2023/01/15 02:31:35;;;;;;;1.73;0.67;;;;;;;9.97;100.00;98290.66;12217972;19;20002;-84
2023/01/15 02:35:44;;;;;;;0.88;0.40;;;;;;;9.86;100.00;98289.84;12192388;19;20449;-85
2023/01/15 02:39:48;;;;;;;2.47;0.40;;;;;;;9.77;100.00;98297.06;12221997;19;20006;-84
2023/01/15 02:43:54;;;;;;;1.67;0.47;;;;;;;9.65;100.00;98302.06;12211956;19;20369;-84
2023/01/15 02:48:12;;;;;;;0.85;0.30;;;;;;;9.64;100.00;98301.25;12189411;19;20007;-85
2023/01/15 02:52:20;;;;;;;1.20;0.50;;;;;;;9.58;100.00;98292.19;12209902;19;20030;-84
2023/01/15 02:56:25;;;;;;;0.30;0.30;;;;;;;9.58;100.00;98307.88;12192850;19;20090;-83
2023/01/15 03:00:32;;;;;;;0.47;0.30;;;;;;;9.52;100.00;98308.97;12206776;19;20063;-84
2023/01/15 03:04:42;;;;;;;1.88;0.40;;;;;;;9.51;100.00;98316.38;12208622;19;20425;-84
2023/01/15 03:08:45;;;;;;;1.00;0.30;;;;;;;9.45;100.00;98324.94;12190964;19;20006;-84
2023/01/15 03:13:02;;;;;;;0.53;0.30;;;;;;;9.40;100.00;98346.94;12212945;19;20017;-84
2023/01/15 03:17:51;;;;;;;0.60;0.30;;;;;;;9.22;100.00;98348.34;12194241;19;20664;-86
2023/01/15 03:22:17;;;;;;;0.45;0.28;;;;;;;9.06;100.00;98353.84;12216045;19;20002;-83
2023/01/15 03:26:19;;;;;;;0.50;0.15;;;;;;;8.94;100.00;98347.00;12194577;19;20095;-84
2023/01/15 03:30:21;;;;;;;0.20;0.20;;;;;;;8.71;100.00;98353.84;12232541;19;20011;-84
2023/01/15 03:34:32;;;;;;;0.70;0.20;;;;;;;8.56;100.00;98349.16;12241511;19;20414;-83
2023/01/15 03:38:37;;;;;;;0.13;0.13;;;;;;;8.40;100.00;98346.38;12203798;19;20019;-83
2023/01/15 03:43:39;;;;;;;1.05;0.20;;;;;;;8.27;100.00;98359.75;12221066;19;20010;-84
2023/01/15 03:47:36;;;;;;;3.63;1.38;;;;;;;8.19;100.00;98367.44;12199114;19;20393;-83
2023/01/15 03:51:48;;;;;;;0.20;0.20;;;;;;;8.19;100.00;98364.69;12209824;19;20125;-83
2023/01/15 03:55:53;;;;;;;0.88;0.20;;;;;;;8.20;100.00;98388.28;12213056;19;20477;-84
2023/01/15 04:00:00;;;;;;;3.15;0.20;;;;;;;8.19;100.00;98372.09;12194688;19;20017;-84
2023/01/15 04:04:05;;;;;;;0.30;0.20;;;;;;;8.19;100.00;98363.88;12211719;19;20010;-83
2023/01/15 04:08:11;;;;;;;1.08;0.20;;;;;;;8.21;100.00;98373.50;12211645;19;20010;-84
2023/01/15 04:12:13;;;;;;;4.07;0.22;;;;;;;8.21;100.00;98373.50;12188381;19;20010;-83
2023/01/15 04:16:27;;;;;;;1.60;0.20;;;;;;;8.17;100.00;98380.59;12207567;19;20028;-84
2023/01/15 04:20:29;;;;;;;0.70;0.20;;;;;;;8.14;100.00;98388.53;12189576;19;20159;-84
2023/01/15 04:24:31;;;;;;;0.20;0.10;;;;;;;8.09;100.00;98397.59;12205465;19;20022;-84
2023/01/15 04:28:33;;;;;;;0.30;0.20;;;;;;;8.00;100.00;98410.13;12204269;19;20003;-83
2023/01/15 04:32:34;;;;;;;1.00;0.20;;;;;;;7.92;100.00;98402.44;12186932;19;20010;-83
2023/01/15 04:36:36;;;;;;;0.40;0.20;;;;;;;7.89;100.00;98419.44;12206779;19;20031;-82
2023/01/15 04:44:58;;;;;;;1.23;0.10;;;;;;;7.78;100.00;98420.47;12183626;19;20006;-83
2023/01/15 04:49:02;;;;;;;;;;;;;;;7.68;100.00;98423.97;12203792;19;20019;-83
2023/01/15 04:53:03;;;;;;;0.40;0.20;;;;;;;7.59;100.00;98429.13;12204874;19;19970;-83
2023/01/15 04:57:05;;;;;;;0.70;0.30;;;;;;;7.53;100.00;98438.41;12183336;19;20006;-83
2023/01/15 05:01:15;;;;;;;0.40;0.40;;;;;;;7.42;100.00;98464.09;12206413;19;20007;-83
2023/01/15 05:05:17;;;;;;;1.08;0.17;;;;;;;7.33;100.00;98466.47;12179249;19;20252;-84
2023/01/15 05:09:18;;;;;;;0.10;0.10;;;;;;;7.28;100.00;98453.56;12201989;19;20003;-83
2023/01/15 05:13:20;;;;;;;0.30;0.20;;;;;;;7.26;100.00;98449.44;12205833;19;20010;-83
2023/01/15 05:17:22;;;;;;;0.15;0.15;;;;;;;7.18;100.00;98461.69;12184686;19;20048;-84
2023/01/15 05:21:27;;;;;;;0.20;0.20;;;;;;;7.07;100.00;98460.78;12207300;19;20030;-84
2023/01/15 05:25:29;;;;;;;0.20;0.10;;;;;;;7.02;100.00;98451.69;12204296;19;20044;-84
2023/01/15 05:29:30;;;;;;;0.52;0.20;;;;;;;6.97;100.00;98457.94;12185051;19;20016;-83
2023/01/15 05:33:32;;;;;;;0.22;0.20;;;;;;;6.86;100.00;98475.38;12208426;19;20007;-82
2023/01/15 05:37:33;;;;;;;1.30;0.30;;;;;;;6.79;100.00;98470.09;12211033;19;20014;-84
2023/01/15 05:41:48;;;;;;;2.72;0.30;;;;;;;6.71;100.00;98472.47;12195077;19;20081;-83
2023/01/15 05:45:50;;;;;;;2.17;0.40;;;;;;;6.66;100.00;98502.50;12221260;19;20006;-84
2023/01/15 05:49:52;;;;;;;0.80;0.40;;;;;;;6.60;100.00;98498.88;12222081;19;20083;-83
2023/01/15 05:53:55;;;;;;;0.40;0.30;;;;;;;6.50;100.00;98496.88;12193815;19;20025;-84
2023/01/15 05:57:57;;;;;;;1.30;0.43;;;;;;;6.45;100.00;98498.72;12219728;19;20011;-84
2023/01/15 06:01:59;;;;;;;0.93;0.47;;;;;;;6.38;100.00;98507.94;12222306;19;20023;-84
2023/01/15 06:06:01;;;;;;;1.03;0.80;;;;;;;6.39;100.00;98514.25;12196335;19;20002;-83
2023/01/15 06:10:03;;;;;;;1.13;0.50;;;;;;;6.43;100.00;98495.44;12221308;19;20026;-83
2023/01/15 06:14:05;;;;;;;1.27;0.50;;;;;;;6.33;100.00;98498.84;12226773;19;20031;-84
2023/01/15 06:18:07;;;;;;;0.73;0.52;;;;;;;6.28;100.00;98496.06;12207587;19;20015;-83
2023/01/15 06:22:09;;;;;;;0.77;0.50;;;;;;;6.19;100.00;98495.66;12222186;19;20091;-82
2023/01/15 06:26:16;;;;;;;1.35;0.57;;;;;;;6.14;100.00;98499.16;12220939;19;20007;-82
2023/01/15 06:30:18;;;;;;;1.02;0.57;;;;;;;6.13;100.00;98500.25;12195308;19;20030;-82
2023/01/15 06:34:20;;;;;;;2.37;0.90;;;;;;;6.10;100.00;98530.84;12216752;19;20013;-82
2023/01/15 06:38:22;;;;;;;1.48;0.88;;;;;;;6.08;100.00;98540.38;12201080;19;20030;-82
2023/01/15 06:51:20;;;;;;;0.30;0.30;;;;;;;6.09;100.00;98548.31;12198351;19;20010;-83
2023/01/15 06:55:23;;;;;;;2.20;0.60;;;;;;;6.08;100.00;98540.38;12220902;19;20011;-82
2023/01/15 06:59:24;;;;;;;1.63;0.60;;;;;;;6.00;100.00;98555.28;12219883;19;20003;-82
2023/01/15 07:03:26;;;;;;;1.38;0.43;;;;;;;5.97;100.00;98565.91;12267554;19;20293;-82
2023/01/15 07:07:28;;;;;;;1.38;0.60;;;;;;;5.96;100.00;98564.25;12229879;19;20007;-83
2023/01/15 07:11:30;;;;;;;1.80;0.45;;;;;;;5.96;100.00;98572.47;12207760;19;20011;-82
2023/01/15 07:15:33;;;;;;;0.82;0.40;;;;;;;5.97;100.00;98568.63;12225318;19;20495;-82
2023/01/15 07:19:35;;;;;;;2.05;0.60;;;;;;;5.98;100.00;98584.81;12231363;19;20034;-82
2023/01/15 07:23:37;;;;;;;4.45;0.70;;;;;;;5.98;100.00;98595.75;12252987;19;20017;-83
2023/01/15 07:27:39;;;;;;;1.98;0.75;;;;;;;6.01;100.00;98610.78;12262755;19;20027;-83
2023/01/15 07:31:41;;;;;;;2.28;0.70;;;;;;;6.08;100.00;98601.34;12216469;19;20014;-83
2023/01/15 07:35:43;;;;;;;2.00;0.80;;;;;;;6.10;100.00;98617.53;12189143;19;20809;-83
2023/01/15 07:39:45;;;;;;;1.58;0.70;;;;;;;6.09;100.00;98626.78;12208673;19;19998;-83
2023/01/15 07:52:29;;;;;;;1.10;0.50;;;;;;;6.04;100.00;98632.19;12215482;19;20003;-83
2023/01/15 07:56:31;;;;;;;2.15;0.50;;;;;;;6.08;100.00;98644.28;12194891;19;20038;-83
2023/01/15 08:00:32;;;;;;;1.60;0.50;;;;;;;6.10;100.00;98645.69;12215840;19;20011;-83
2023/01/15 08:04:34;;;;;;;1.20;0.60;;;;;;;6.18;100.00;98641.69;12206747;19;20039;-83
2023/01/15 08:08:36;;;;;;;2.85;0.77;;;;;;;6.22;100.00;98653.81;12192339;19;21078;-83
2023/01/15 08:16:58;;;;;;;4.65;1.60;;;;;;;6.31;100.00;98652.31;12219806;19;20579;-83
2023/01/15 08:21:00;;;;;;;4.45;1.80;;;;;;;6.35;100.00;98658.94;12210653;19;20022;-82
2023/01/15 08:25:02;;;;;;;9.57;2.35;;;;;;;6.37;100.00;98661.44;12219767;19;20023;-82
2023/01/15 08:29:03;;;;;;;5.47;2.60;;;;;;;6.36;100.00;98652.38;12217080;19;20027;-82
2023/01/15 08:33:05;;;;;;;5.53;2.53;;;;;;;6.38;100.00;98669.38;12193435;19;20081;-83
2023/01/15 08:37:08;;;;;;;4.95;2.28;;;;;;;6.39;100.00;98681.16;12229890;19;20043;-83
2023/01/15 08:41:10;;;;;;;4.35;1.80;;;;;;;6.34;100.00;98686.56;12226819;19;20006;-83
2023/01/15 08:45:11;;;;;;;2.72;1.20;;;;;;;6.32;100.00;98685.97;12181894;19;20007;-83
2023/01/15 08:49:14;;;;;;;2.75;1.27;;;;;;;6.30;100.00;98697.16;12201967;19;20071;-82
2023/01/15 08:53:18;;;;;;;4.35;1.58;;;;;;;6.34;100.00;98700.25;12200053;19;20038;-82
2023/01/15 08:57:19;;;;;;;1.20;0.75;;;;;;;6.32;100.00;98707.84;12177098;19;20027;-82
2023/01/15 09:01:21;;;;;;;2.35;0.90;;;;;;;6.35;100.00;98715.56;12197427;19;20002;-82
2023/01/15 09:05:22;;;;;;;1.17;0.50;;;;;;;6.39;100.00;98723.03;12172684;19;20034;-83
2023/01/15 09:09:24;;;;;;;4.68;0.60;;;;;;;6.41;100.00;98724.69;12198790;19;20030;-83
2023/01/15 09:13:28;;;;;;;0.65;0.57;;;;;;;6.44;100.00;98737.88;12199439;19;20653;-83
2023/01/15 09:17:31;;;;;;;2.28;0.65;;;;;;;6.37;100.00;98733.41;12179399;19;20050;-82
2023/01/15 09:21:33;;;;;;;3.50;0.77;;;;;;;6.34;100.00;98733.91;12198233;19;20032;-82
2023/01/15 09:25:35;;;;;;;1.23;0.77;;;;;;;6.33;100.00;98751.38;12198214;19;20007;-82
2023/01/15 09:29:36;;;;;;;1.42;0.80;;;;;;;6.32;100.00;98757.94;12178754;19;20010;-82
2023/01/15 09:33:38;;;;;;;2.47;0.77;;;;;;;6.26;100.00;98737.03;12197659;19;20019;-82
2023/01/15 09:37:40;;;;;;;1.33;0.80;;;;;;;6.24;100.00;98752.84;12196035;19;20010;-82
2023/01/15 09:42:09;;;;;;;1.83;1.08;;;;;;;6.23;100.00;98753.13;12178526;19;20578;-81
2023/01/15 09:46:24;;;;;;;1.58;0.90;;;;;;;6.24;100.00;98765.72;12194549;19;20010;-82
2023/01/15 09:50:34;;;;;;;2.55;0.90;;;;;;;6.28;100.00;98791.53;12181944;19;20014;-81
2023/01/15 09:54:50;;;;;;;1.00;0.80;;;;;;;6.29;100.00;98793.16;12199031;19;20003;-82
2023/01/15 09:58:55;;;;;;;1.70;1.00;;;;;;;6.28;100.00;98794.25;12198422;19;20376;-81
2023/01/15 10:03:04;;;;;;;1.48;0.95;;;;;;;6.25;100.00;98792.84;12172337;19;20007;-84
2023/01/15 10:07:21;;;;;;;1.67;1.10;;;;;;;6.26;100.00;98808.16;12181918;19;20366;-81
2023/01/15 10:16:00;;;;;;;2.78;0.68;;;;;;;6.34;100.00;98821.44;12199280;19;20735;-84
2023/01/15 10:20:02;;;;;;;1.00;0.67;;;;;;;6.34;100.00;98837.03;12202449;19;19999;-84
2023/01/15 10:24:13;;;;;;;0.70;0.60;;;;;;;6.35;100.00;98839.53;12183052;19;21713;-83
2023/01/15 10:28:22;;;;;;;1.05;0.50;;;;;;;6.33;100.00;98844.41;12208977;19;20003;-85
2023/01/15 10:32:54;;;;;;;1.13;0.60;;;;;;;6.34;100.00;98843.34;12193422;19;20703;-84
2023/01/15 10:37:22;;;;;;;2.22;0.80;;;;;;;6.29;100.00;98839.69;12211590;19;20002;-82
2023/01/15 10:41:38;;;;;;;1.67;0.80;;;;;;;6.20;100.00;98847.44;12196649;19;20002;-82
2023/01/15 10:45:46;;;;;;;1.70;0.52;;;;;;;6.18;100.00;98854.25;12212369;19;20006;-86
2023/01/15 10:49:48;;;;;;;1.60;0.43;;;;;;;6.03;100.00;98852.03;12212174;19;20704;-85
2023/01/15 10:53:59;;;;;;;3.53;0.47;;;;;;;5.99;100.00;98853.59;12191941;19;20081;-84
2023/01/15 10:58:19;;;;;;;0.75;0.50;;;;;;;5.85;100.00;98856.59;12218375;19;19998;-85
2023/01/15 11:02:44;;;;;;;3.03;0.40;;;;;;;5.75;100.00;98847.34;12216418;19;20111;-86
2023/01/15 11:06:46;;;;;;;1.58;0.30;;;;;;;5.68;100.00;98842.00;12192940;19;20310;-83
2023/01/15 11:10:47;;;;;;;1.65;0.35;;;;;;;5.61;100.00;98838.59;12216630;19;20014;-84
2023/01/15 11:19:36;;;;;;;3.45;0.70;;;;;;;5.62;100.00;98837.50;12212676;19;20006;-84
2023/01/15 11:23:38;;;;;;;1.15;0.52;;;;;;;5.56;100.00;98838.47;12192949;19;20025;-84
2023/01/15 11:27:40;;;;;;;1.58;0.60;;;;;;;5.60;100.00;98836.94;12219022;19;20007;-83
2023/01/15 11:31:41;;;;;;;2.08;0.45;;;;;;;5.57;100.00;98848.34;12215623;19;20037;-84
2023/01/15 11:35:56;;;;;;;1.23;0.50;;;;;;;5.54;100.00;98843.38;12190759;19;20022;-84
2023/01/15 11:40:06;;;;;;;0.73;0.30;;;;;;;5.47;100.00;98855.25;12215780;19;20114;-84
2023/01/15 11:52:54;;;;;;;1.95;0.30;;;;;;;5.39;100.00;98844.69;12268637;19;19995;-85
2023/01/15 11:56:59;;;;;;;1.25;0.30;;;;;;;5.29;100.00;98854.56;12193590;19;19998;-83
2023/01/15 12:01:01;;;;;;;0.30;0.30;;;;;;;5.32;100.00;98854.91;12210251;19;20423;-84
2023/01/15 12:05:04;;;;;;;3.10;0.77;;;;;;;5.59;100.00;98848.91;12207205;19;20124;-84
2023/01/15 12:09:34;;;;;;;0.90;0.40;;;;;;;6.27;100.00;98842.66;12184167;19;20011;-83
2023/01/15 12:13:51;;;;;;;1.15;0.40;;;;;;;6.48;100.00;98840.28;12202347;19;20002;-83
2023/01/15 12:18:25;;;;;;;1.92;0.63;;;;;;;6.53;100.00;98835.72;12177580;19;20006;-84
2023/01/15 12:22:58;;;;;;;4.05;0.45;;;;;;;6.83;100.00;98829.09;12198759;19;20389;-82
2023/01/15 12:27:08;;;;;;;3.55;0.50;;;;;;;7.36;100.00;98846.88;12180463;19;20011;-83
2023/01/15 12:31:15;;;;;;;0.93;0.40;;;;;;;7.56;100.00;98823.59;12199303;19;20444;-82
2023/01/15 12:35:28;;;;;;;0.73;0.30;;;;;;;7.83;100.00;98827.22;12200464;19;20006;-82
2023/01/15 12:39:48;;;;;;;2.75;0.55;;;;;;;8.11;100.00;98823.41;12184393;19;20136;-82
2023/01/15 12:48:42;;;;;;;1.05;0.32;;;;;;;8.05;96.13;98816.22;12176717;19;20096;-83
2023/01/15 12:52:48;;;;;;;2.40;0.50;;;;;;;7.98;100.00;98801.88;12197869;19;20042;-82
2023/01/15 12:57:13;;;;;;;3.85;0.70;;;;;;;8.11;98.54;98795.97;12179522;19;20003;-81
2023/01/15 13:01:25;;;;;;;0.77;0.40;;;;;;;8.57;94.08;98798.38;12200640;19;20054;-82
2023/01/15 13:05:36;;;;;;;2.33;0.55;;;;;;;8.83;96.62;98802.13;12177325;19;20007;-83
2023/01/15 13:09:52;;;;;;;0.90;0.52;;;;;;;8.73;95.47;98818.53;12200218;19;20006;-82
2023/01/15 13:13:57;;;;;;;3.55;0.55;;;;;;;8.41;94.49;98822.09;12200421;19;20750;-83
2023/01/15 13:18:05;;;;;;;3.08;0.50;;;;;;;8.13;94.94;98837.72;12180911;19;20011;-81
2023/01/15 13:22:16;;;;;;;1.40;0.55;;;;;;;8.39;97.74;98851.75;12209206;19;20010;-83
2023/01/15 13:26:23;;;;;;;1.85;0.57;;;;;;;8.81;94.26;98856.53;12248036;19;20095;-82
2023/01/15 13:30:40;;;;;;;0.98;0.40;;;;;;;9.16;90.54;98857.88;12239779;19;19994;-80
2023/01/15 13:34:49;;;;;;;3.78;0.52;;;;;;;9.17;88.35;98849.38;12226292;19;20398;-82
2023/01/15 13:38:54;;;;;;;3.70;0.93;;;;;;;9.17;91.98;98856.81;12184149;19;20083;-82
2023/01/15 13:42:56;;;;;;;2.70;0.77;;;;;;;9.00;88.73;98851.44;12200570;19;20006;-83
2023/01/15 13:47:12;;;;;;;2.03;0.50;;;;;;;8.89;89.90;98856.88;12199451;19;20075;-82
2023/01/15 13:51:26;;;;;;;1.13;0.52;;;;;;;8.70;90.77;98865.75;12189178;19;20128;-83
2023/01/15 13:55:41;;;;;;;2.10;0.57;;;;;;;8.53;91.04;98869.44;12228102;19;20081;-82
2023/01/15 13:59:43;;;;;;;3.75;0.57;;;;;;;8.30;92.48;98854.09;12207015;19;20007;-82
2023/01/15 14:03:56;;;;;;;2.47;0.60;;;;;;;8.22;92.45;98857.28;12206847;19;20014;-82
2023/01/15 14:08:00;;;;;;;3.45;0.55;;;;;;;8.21;92.39;98856.47;12211961;19;20010;-83
2023/01/15 14:12:36;;;;;;;1.90;0.47;;;;;;;8.23;91.96;98854.28;12187179;19;20330;-81
2023/01/15 14:17:01;;;;;;;0.85;0.57;;;;;;;8.15;89.54;98845.66;12206069;19;20062;-82
2023/01/15 14:21:17;;;;;;;3.72;0.85;;;;;;;8.07;89.52;98849.72;12188924;19;20018;-82
2023/01/15 14:25:30;;;;;;;5.18;1.05;;;;;;;7.78;87.97;98846.34;12210176;19;20003;-83
2023/01/15 14:29:53;;;;;;;4.85;1.20;;;;;;;7.64;88.87;98854.13;12192883;19;20033;-83
2023/01/15 14:33:58;;;;;;;3.00;0.80;;;;;;;7.46;88.35;98854.41;12207641;19;20006;-82
2023/01/15 14:38:13;;;;;;;2.20;0.50;;;;;;;7.40;87.97;98856.25;12212141;19;20107;-80
2023/01/15 14:46:42;;;;;;;4.38;0.98;;;;;;;7.38;89.71;98866.66;12207002;19;20084;-81
2023/01/15 14:50:45;;;;;;;2.03;0.50;;;;;;;7.29;86.96;98877.22;12183107;19;20004;-81
2023/01/15 14:54:47;;;;;;;4.00;0.88;;;;;;;7.29;88.58;98885.44;12208855;19;20026;-82
2023/01/15 14:58:52;;;;;;;5.10;0.80;;;;;;;7.33;87.62;98876.72;12204228;19;20030;-84
2023/01/15 15:02:54;;;;;;;3.50;1.05;;;;;;;7.27;86.31;98884.84;12187013;19;20002;-83
2023/01/15 15:07:00;;;;;;;4.00;0.70;;;;;;;7.28;86.81;98891.97;12208761;19;20010;-84
2023/01/15 15:12:17;;;;;;;4.30;1.10;;;;;;;7.29;87.94;98904.63;12209269;19;20227;-83
2023/01/15 15:15:33;;;;;;;3.78;1.00;;;;;;;7.27;88.09;98895.00;12186665;19;20011;-84
2023/01/15 15:19:46;;;;;;;4.50;1.08;;;;;;;7.26;85.40;98905.13;12201707;19;20019;-86
2023/01/15 15:24:21;;;;;;;5.30;1.60;;;;;;;7.29;87.98;98910.09;12168237;19;20030;-84
2023/01/15 15:28:23;;;;;;;3.75;0.93;;;;;;;7.20;88.10;98917.09;12201968;19;20239;-85
2023/01/15 15:32:26;;;;;;;2.93;0.70;;;;;;;7.12;87.96;98931.19;12186949;19;20087;-87
2023/01/15 15:36:32;;;;;;;5.15;1.00;;;;;;;7.10;89.61;98925.13;12204902;19;20013;-85
2023/01/15 15:40:35;;;;;;;4.18;1.20;;;;;;;7.02;88.76;98936.50;12208045;19;20504;-83
2023/01/15 15:49:06;;;;;;;2.40;0.88;;;;;;;7.03;89.35;98924.47;12206413;19;20074;-84
2023/01/15 15:53:16;;;;;;;3.20;1.23;;;;;;;7.02;89.86;98929.13;12206704;19;20002;-83
2023/01/15 15:57:19;;;;;;;11.15;2.13;;;;;;;7.03;90.17;98927.22;12194454;19;20256;-84
2023/01/15 16:01:20;;;;;;;11.55;4.93;;;;;;;7.05;91.23;98917.66;12208163;19;20025;-85
2023/01/15 16:05:30;;;;;;;6.33;1.80;;;;;;;7.04;91.51;98918.72;12207632;19;20025;-85
2023/01/15 16:09:32;;;;;;;5.72;1.85;;;;;;;7.01;90.93;98910.19;12182549;19;20006;-87
2023/01/15 16:13:45;;;;;;;5.07;1.65;;;;;;;6.97;90.80;98911.78;12206564;19;20011;-85
2023/01/15 16:17:48;;;;;;;4.68;1.80;;;;;;;7.03;91.87;98905.31;12185526;19;21761;-84
2023/01/15 16:21:50;;;;;;;4.22;1.48;;;;;;;7.02;92.09;98917.31;12202683;19;20023;-84
2023/01/15 16:25:59;;;;;;;8.75;1.65;;;;;;;7.02;93.29;98942.81;12203528;19;20468;-86
2023/01/15 16:30:05;;;;;;;6.00;2.92;;;;;;;6.99;97.74;98953.41;12182059;19;20026;-87
2023/01/15 16:34:20;;;;;;;4.75;1.77;;;;;;;6.76;100.00;98916.91;12216284;19;20038;-85
2023/01/15 16:38:25;;;;;;;8.73;2.47;;;;;;;6.53;100.00;98925.22;12211748;19;20010;-85
2023/01/15 16:42:34;;;;;;;5.03;2.47;;;;;;;6.20;100.00;98940.47;12210378;19;20026;-86
2023/01/15 16:46:48;;;;;;;5.28;1.50;;;;;;;5.88;100.00;98932.66;12215797;19;20574;-84
2023/01/15 16:50:51;;;;;;;4.60;1.27;;;;;;;5.82;100.00;98938.25;12237232;19;20011;-84
2023/01/15 16:54:54;;;;;;;7.77;1.27;;;;;;;5.66;100.00;98917.97;12240846;19;20018;-85
2023/01/15 16:58:56;;;;;;;5.72;2.17;;;;;;;5.53;100.00;98916.28;12214895;19;20279;-85
2023/01/15 17:02:57;;;;;;;4.30;2.03;;;;;;;5.43;100.00;98918.81;12200476;19;20014;-85
2023/01/15 17:07:04;;;;;;;6.63;1.70;;;;;;;5.34;100.00;98925.69;12215052;19;20006;-84
2023/01/15 17:11:20;;;;;;;3.80;1.50;;;;;;;5.33;100.00;98913.94;12215435;19;20102;-84
2023/01/15 17:15:24;;;;;;;6.40;1.67;;;;;;;5.35;100.00;98927.34;12192608;19;20002;-85
2023/01/15 17:19:26;;;;;;;8.90;2.42;;;;;;;5.38;100.00;98933.16;12210890;19;20019;-85
2023/01/15 17:23:33;;;;;;;6.10;2.08;;;;;;;5.37;100.00;98926.06;12200299;19;20011;-84
2023/01/15 17:27:35;;;;;;;4.68;1.67;;;;;;;5.37;100.00;98923.31;12186743;19;20827;-85
2023/01/15 17:31:37;;;;;;;7.50;1.92;;;;;;;5.38;100.00;98914.03;12207453;19;20394;-85
2023/01/15 17:35:42;;;;;;;4.82;1.73;;;;;;;5.43;100.00;98910.63;12179695;19;20002;-85
2023/01/15 17:39:43;;;;;;;3.13;1.58;;;;;;;5.48;100.00;98895.16;12215913;19;20006;-85
2023/01/15 17:43:46;;;;;;;5.25;1.77;;;;;;;5.54;100.00;98892.56;12212771;19;20068;-84
2023/01/15 17:47:49;;;;;;;8.60;1.85;;;;;;;5.63;100.00;98891.13;12213557;19;20024;-83
2023/01/15 17:51:51;;;;;;;5.95;3.35;;;;;;;5.70;100.00;98878.13;12214346;19;20380;-85
2023/01/15 18:09:06;;;;;;;5.13;1.60;;;;;;;5.79;100.00;98881.31;12215692;19;20007;-85
2023/01/15 18:13:11;;;;;;;3.53;1.60;;;;;;;5.77;100.00;98887.06;12212327;19;20003;-84
2023/01/15 18:17:33;;;;;;;6.32;1.70;;;;;;;5.84;100.00;98887.75;12212651;19;20259;-85
2023/01/15 18:21:40;;;;;;;5.22;1.58;;;;;;;5.87;100.00;98876.31;12188359;19;20014;-84
2023/01/15 18:25:46;;;;;;;5.40;1.50;;;;;;;5.86;100.00;98869.19;12208552;19;20056;-84
2023/01/15 18:29:47;;;;;;;6.85;1.30;;;;;;;5.82;100.00;98869.91;12188508;19;20065;-85
2023/01/15 18:33:49;;;;;;;5.82;1.60;;;;;;;5.86;100.00;98857.41;12204866;19;20100;-85
2023/01/15 18:37:51;;;;;;;6.85;1.60;;;;;;;5.81;100.00;98860.88;12211449;19;20003;-83
2023/01/15 18:46:42;;;;;;;6.50;2.10;;;;;;;5.79;100.00;98854.81;12206564;19;20010;-83
2023/01/15 18:50:34;;;;;;;6.60;1.25;;;;;;;5.84;100.00;98844.00;12183438;19;20022;-82
2023/01/15 18:54:37;;;;;;;6.13;1.30;;;;;;;5.85;100.00;98845.66;12202354;19;20018;-86
2023/01/15 18:58:40;;;;;;;8.40;1.70;;;;;;;5.91;100.00;98832.91;12205154;19;19999;-83
2023/01/15 19:02:43;;;;;;;5.95;1.40;;;;;;;5.94;100.00;98836.00;12182470;19;20097;-84
2023/01/15 19:06:46;;;;;;;5.70;2.20;;;;;;;5.93;100.00;98831.63;12204469;19;20013;-84
2023/01/15 19:10:53;;;;;;;6.70;1.40;;;;;;;5.95;100.00;98836.88;12205950;19;20020;-85
2023/01/15 19:19:16;;;;;;;2.80;1.25;;;;;;;6.00;100.00;98825.19;12208939;19;20659;-85
2023/01/15 19:23:19;;;;;;;5.22;1.08;;;;;;;6.08;100.00;98831.09;12204341;19;20006;-84
2023/01/15 19:27:22;;;;;;;4.10;1.50;;;;;;;6.15;100.00;98839.13;12192406;19;20352;-85
2023/01/15 19:31:38;;;;;;;3.17;1.27;;;;;;;6.16;100.00;98829.88;12215136;19;20027;-85
2023/01/15 19:35:39;;;;;;;4.47;1.15;;;;;;;6.21;100.00;98829.94;12210507;19;20010;-84
2023/01/15 19:39:43;;;;;;;6.47;1.90;;;;;;;6.24;100.00;98832.19;12271648;19;20008;-82
2023/01/15 19:52:34;;;;;;;2.65;1.25;;;;;;;6.25;100.00;98822.94;12210562;19;20007;-83
2023/01/15 19:56:36;;;;;;;2.60;0.98;;;;;;;6.20;100.00;98816.53;12228838;19;20023;-81
2023/01/15 20:00:39;;;;;;;3.55;1.67;;;;;;;6.22;100.00;98817.94;12212729;19;20053;-82
2023/01/15 20:04:44;;;;;;;4.68;1.60;;;;;;;6.22;100.00;98801.53;12211357;19;20015;-85
2023/01/15 20:08:46;;;;;;;2.72;1.20;;;;;;;6.15;100.00;98785.25;12190326;19;20389;-81
2023/01/15 20:17:10;;;;;;;3.75;1.30;;;;;;;6.01;100.00;98777.59;12205162;19;20018;-82
2023/01/15 20:21:18;;;;;;;4.68;1.13;;;;;;;6.02;100.00;98771.09;12209078;19;20011;-83
2023/01/15 20:25:51;;;;;;;7.30;2.38;;;;;;;6.05;100.00;98765.13;12214597;19;20009;-83
2023/01/15 20:30:11;;;;;;;3.85;1.35;;;;;;;5.99;100.00;98758.72;12187993;19;20472;-83
2023/01/15 20:34:14;;;;;;;2.67;1.20;;;;;;;6.01;100.00;98753.00;12210731;19;20471;-83
2023/01/15 20:38:17;;;;;;;4.55;1.25;;;;;;;6.00;100.00;98745.88;12208370;19;20014;-83
2023/01/15 20:46:39;;;;;;;6.63;1.95;;;;;;;5.91;100.00;98746.25;12206334;19;20015;-83
2023/01/15 20:51:00;;;;;;;5.18;1.13;;;;;;;5.98;100.00;98735.19;12189710;19;20003;-84